createdAt,value
2017-11-08T00:02:24.747Z,13.40
2017-11-08T00:05:26.661Z,13.93
2017-11-08T00:08:28.595Z,13.50
2017-11-08T00:11:30.607Z,14.87
2017-11-08T00:14:33.384Z,14.30
2017-11-08T00:17:35.307Z,14.40
2017-11-08T00:20:37.243Z,13.33
2017-11-08T00:23:39.242Z,14.90
2017-11-08T00:26:41.648Z,15.13
2017-11-08T00:29:44.314Z,14.17
2017-11-08T00:32:46.309Z,14.90
2017-11-08T00:35:49.023Z,14.50
2017-11-08T00:38:51.421Z,14.63
2017-11-08T00:41:54.201Z,13.93
2017-11-08T00:44:56.922Z,13.73
2017-11-08T00:47:59.589Z,14.87
2017-11-08T00:51:01.873Z,15.40
2017-11-08T00:54:03.893Z,13.20
2017-11-08T00:57:06.994Z,14.50
2017-11-08T01:00:08.888Z,15.17
2017-11-08T01:03:11.571Z,14.57
2017-11-08T01:06:13.466Z,14.93
2017-11-08T01:09:16.443Z,14.40
2017-11-08T01:12:18.447Z,14.87
2017-11-08T01:15:21.201Z,15.00
2017-11-08T01:18:23.837Z,15.70
2017-11-08T01:21:26.523Z,14.53
2017-11-08T01:24:28.530Z,15.17
2017-11-08T01:27:30.789Z,15.70
2017-11-08T01:30:32.844Z,15.83
2017-11-08T01:33:35.088Z,16.40
2017-11-08T01:36:37.022Z,15.13
2017-11-08T01:39:39.377Z,15.43
2017-11-08T01:42:42.241Z,15.57
2017-11-08T01:45:44.462Z,15.40
2017-11-08T01:48:47.234Z,15.83
2017-11-08T01:51:49.229Z,16.17
2017-11-08T01:54:51.153Z,16.00
2017-11-08T01:57:53.430Z,16.03
2017-11-08T02:00:56.218Z,16.30
2017-11-08T02:03:58.151Z,15.17
2017-11-08T02:07:00.037Z,16.43
2017-11-08T02:10:02.223Z,16.17
2017-11-08T02:13:04.138Z,17.77
2017-11-08T02:16:06.955Z,16.63
2017-11-08T02:19:09.746Z,17.03
2017-11-08T02:22:11.738Z,16.73
2017-11-08T02:25:15.037Z,17.83
2017-11-08T02:28:18.663Z,16.87
2017-11-08T02:31:20.569Z,17.00
2017-11-08T02:34:23.559Z,17.30
2017-11-08T02:37:25.479Z,17.17
2017-11-08T02:40:27.417Z,16.30
2017-11-08T02:43:29.518Z,17.33
2017-11-08T02:46:32.518Z,18.90
2017-11-08T02:49:35.474Z,17.47
2017-11-08T02:52:37.461Z,18.27
2017-11-08T02:55:39.358Z,18.63
2017-11-08T02:58:41.784Z,18.33
2017-11-08T03:01:44.554Z,19.60
2017-11-08T03:04:46.498Z,18.67
2017-11-08T03:07:48.418Z,18.43
2017-11-08T03:10:50.342Z,18.83
2017-11-08T03:13:53.011Z,18.10
2017-11-08T03:16:55.257Z,19.17
2017-11-08T03:19:57.262Z,16.63
2017-11-08T03:22:59.505Z,19.67
2017-11-08T03:26:02.255Z,20.30
2017-11-08T03:29:04.460Z,19.07
2017-11-08T03:32:06.433Z,19.90
2017-11-08T03:35:08.386Z,19.67
2017-11-08T03:38:10.277Z,18.77
2017-11-08T03:41:12.579Z,19.77
2017-11-08T03:44:14.497Z,19.37
2017-11-08T03:47:17.274Z,19.43
2017-11-08T03:50:19.221Z,20.07
2017-11-08T03:53:21.226Z,20.07
2017-11-08T03:56:23.178Z,20.33
2017-11-08T03:59:25.116Z,21.07
2017-11-08T04:02:27.129Z,19.80
2017-11-08T04:05:29.305Z,21.23
2017-11-08T04:08:32.066Z,20.73
2017-11-08T04:11:34.293Z,20.40
2017-11-08T04:14:36.978Z,21.47
2017-11-08T04:17:40.520Z,20.17
2017-11-08T04:20:43.201Z,21.57
2017-11-08T04:23:46.160Z,20.77
2017-11-08T04:26:48.090Z,20.80
2017-11-08T04:29:50.347Z,21.50
2017-11-08T04:32:52.240Z,21.13
2017-11-08T04:35:54.451Z,22.03
2017-11-08T04:38:57.105Z,22.17
2017-11-08T04:41:59.330Z,20.63
2017-11-08T04:45:01.263Z,21.93
2017-11-08T04:48:03.479Z,20.43
2017-11-08T04:51:06.121Z,21.77
2017-11-08T04:54:09.083Z,20.53
2017-11-08T04:57:11.071Z,21.10
2017-11-08T05:00:13.083Z,21.50
2017-11-08T05:03:15.789Z,21.83
2017-11-08T05:06:18.588Z,19.97
2017-11-08T05:09:21.357Z,20.80
2017-11-08T05:12:23.308Z,20.87
2017-11-08T05:15:25.252Z,20.60
2017-11-08T05:18:27.949Z,21.27
2017-11-08T05:21:30.753Z,21.13
2017-11-08T05:24:32.700Z,21.37
2017-11-08T05:27:34.696Z,19.77
2017-11-08T05:30:37.008Z,20.97
2017-11-08T05:33:39.774Z,19.93
2017-11-08T05:36:41.818Z,20.87
2017-11-08T05:39:43.733Z,21.63
2017-11-08T05:42:45.930Z,20.63
2017-11-08T05:45:47.935Z,20.77
2017-11-08T05:48:49.855Z,20.53
2017-11-08T05:51:51.777Z,21.50
2017-11-08T05:54:53.944Z,21.83
2017-11-08T05:57:55.837Z,23.07
2017-11-08T06:00:58.049Z,21.53
2017-11-08T06:04:00.016Z,21.33
2017-11-08T06:07:02.026Z,23.13
2017-11-08T06:10:03.928Z,22.73
2017-11-08T06:13:06.884Z,22.20
2017-11-08T06:16:08.870Z,23.33
2017-11-08T06:19:10.849Z,22.53
2017-11-08T06:22:12.861Z,24.10
2017-11-08T06:25:14.789Z,23.40
2017-11-08T06:28:16.708Z,23.30
2017-11-08T06:31:18.651Z,23.33
2017-11-08T06:34:20.571Z,24.23
2017-11-08T06:37:22.838Z,24.83
2017-11-08T06:40:25.569Z,23.80
2017-11-08T06:43:27.719Z,23.33
2017-11-08T06:46:29.711Z,23.77
2017-11-08T06:49:31.703Z,22.77
2017-11-08T06:52:33.606Z,23.13
2017-11-08T06:55:35.875Z,23.00
2017-11-08T06:58:37.858Z,25.13
2017-11-08T07:01:39.786Z,24.77
2017-11-08T07:04:42.567Z,24.97
2017-11-08T07:07:44.502Z,24.40
2017-11-08T07:10:46.431Z,24.37
2017-11-08T07:13:49.411Z,27.50
2017-11-08T07:16:51.409Z,26.53
2017-11-08T07:19:54.085Z,25.03
2017-11-08T07:22:56.094Z,24.83
2017-11-08T07:25:58.063Z,25.07
2017-11-08T07:29:00.087Z,26.13
2017-11-08T07:32:02.858Z,26.07
2017-11-08T07:35:04.850Z,27.20
2017-11-08T07:38:06.817Z,27.70
2017-11-08T07:41:08.748Z,26.23
2017-11-08T07:44:10.671Z,26.80
2017-11-08T07:47:12.595Z,29.10
2017-11-08T07:50:15.289Z,26.80
2017-11-08T07:53:17.272Z,25.77
2017-11-08T07:56:19.993Z,27.77
2017-11-08T07:59:22.006Z,27.97
2017-11-08T08:02:24.043Z,27.23
2017-11-08T08:05:26.707Z,25.53
2017-11-08T08:08:29.027Z,28.03
2017-11-08T08:11:30.940Z,28.50
2017-11-08T08:14:33.179Z,28.23
2017-11-08T08:17:35.911Z,26.80
2017-11-08T08:20:38.993Z,29.47
2017-11-08T08:23:40.902Z,28.63
2017-11-08T08:26:43.600Z,29.57
2017-11-08T08:29:46.291Z,28.53
2017-11-08T08:32:49.094Z,29.87
2017-11-08T08:35:50.992Z,31.93
2017-11-08T08:38:54.158Z,33.13
2017-11-08T08:41:56.183Z,32.27
2017-11-08T08:44:58.213Z,31.67
2017-11-08T08:48:00.214Z,30.27
2017-11-08T08:51:02.198Z,31.27
2017-11-08T08:54:04.094Z,29.50
2017-11-08T08:57:06.158Z,31.60
2017-11-08T09:00:08.049Z,31.90
2017-11-08T09:03:10.037Z,33.63
2017-11-08T09:06:12.017Z,30.43
2017-11-08T09:09:13.952Z,29.70
2017-11-08T09:12:15.869Z,32.10
2017-11-08T09:15:17.863Z,32.17
2017-11-08T09:18:19.859Z,30.33
2017-11-08T09:21:21.783Z,29.93
2017-11-08T09:24:23.724Z,30.37
2017-11-08T09:27:25.662Z,31.37
2017-11-08T09:30:27.569Z,31.53
2017-11-08T09:33:29.512Z,31.77
2017-11-08T09:36:31.513Z,32.67
2017-11-08T09:39:33.439Z,30.80
2017-11-08T09:42:35.343Z,33.03
2017-11-08T09:45:38.058Z,32.97
2017-11-08T09:48:39.955Z,34.30
2017-11-08T09:51:42.814Z,33.80
2017-11-08T09:54:44.787Z,32.37
2017-11-08T09:57:46.765Z,32.73
2017-11-08T10:00:48.685Z,33.73
2017-11-08T10:03:50.660Z,33.00
2017-11-08T10:06:52.617Z,33.97
2017-11-08T10:09:54.647Z,34.13
2017-11-08T10:12:56.550Z,33.37
2017-11-08T10:15:58.523Z,35.43
2017-11-08T10:19:01.150Z,34.17
2017-11-08T10:22:03.869Z,34.80
2017-11-08T10:25:05.881Z,37.60
2017-11-08T10:28:08.681Z,36.60
2017-11-08T10:31:11.353Z,34.57
2017-11-08T10:34:14.146Z,34.90
2017-11-08T10:37:16.065Z,36.13
2017-11-08T10:40:18.861Z,35.53
2017-11-08T10:43:21.631Z,36.17
2017-11-08T10:46:24.320Z,35.83
2017-11-08T10:49:27.001Z,35.60
2017-11-08T10:52:28.918Z,36.73
2017-11-08T10:55:30.821Z,36.00
2017-11-08T10:58:32.774Z,36.47
2017-11-08T11:01:35.439Z,38.23
2017-11-08T11:04:37.389Z,35.33
2017-11-08T11:07:39.292Z,37.23
2017-11-08T11:10:41.212Z,38.27
2017-11-08T11:13:43.159Z,38.60
2017-11-08T11:16:45.104Z,39.57
2017-11-08T11:19:47.042Z,40.67
2017-11-08T11:22:48.971Z,38.47
2017-11-08T11:25:50.922Z,38.27
2017-11-08T11:28:53.811Z,38.93
2017-11-08T11:31:55.708Z,39.43
2017-11-08T11:34:58.397Z,39.77
2017-11-08T11:38:00.317Z,39.87
2017-11-08T11:41:02.266Z,39.13
2017-11-08T11:44:04.194Z,39.03
2017-11-08T11:47:06.187Z,39.20
2017-11-08T11:50:08.117Z,41.53
2017-11-08T11:53:10.065Z,44.17
2017-11-08T11:56:11.970Z,39.07
2017-11-08T11:59:13.888Z,38.80
2017-11-08T12:02:16.557Z,42.03
2017-11-08T12:05:20.069Z,40.50
2017-11-08T12:08:22.557Z,41.57
2017-11-08T12:11:24.475Z,40.97
2017-11-08T12:14:27.163Z,44.27
2017-11-08T12:17:29.125Z,41.90
2017-11-08T12:20:31.051Z,41.60
2017-11-08T12:23:33.939Z,40.80
2017-11-08T12:26:37.587Z,41.97
2017-11-08T12:29:40.272Z,40.90
2017-11-08T12:32:42.185Z,38.60
2017-11-08T12:35:44.135Z,41.60
2017-11-08T12:38:46.834Z,41.23
2017-11-08T12:41:48.779Z,42.23
2017-11-08T12:44:50.723Z,42.70
2017-11-08T12:47:52.642Z,39.50
2017-11-08T12:50:54.566Z,39.57
2017-11-08T12:53:57.255Z,39.00
2017-11-08T12:56:59.175Z,40.10
2017-11-08T13:00:01.879Z,40.50
2017-11-08T13:03:04.575Z,40.83
2017-11-08T13:06:07.295Z,41.57
2017-11-08T13:09:09.215Z,42.60
2017-11-08T13:12:11.138Z,42.33
2017-11-08T13:15:13.834Z,42.40
2017-11-08T13:18:16.594Z,42.33
2017-11-08T13:21:18.495Z,43.70
2017-11-08T13:24:20.415Z,43.07
2017-11-08T13:27:22.339Z,44.00
2017-11-08T13:30:24.661Z,43.23
2017-11-08T13:33:26.744Z,41.63
2017-11-08T13:36:28.686Z,43.43
2017-11-08T13:39:30.580Z,41.67
2017-11-08T13:42:32.905Z,42.30
2017-11-08T13:45:34.822Z,43.73
2017-11-08T13:48:37.252Z,43.37
2017-11-08T13:51:39.152Z,44.50
2017-11-08T13:54:41.226Z,44.27
2017-11-08T13:57:43.936Z,44.83
2017-11-08T14:00:46.244Z,43.37
2017-11-08T14:03:48.911Z,44.00
2017-11-08T14:06:50.829Z,44.57
2017-11-08T14:09:53.511Z,43.07
2017-11-08T14:12:55.825Z,41.83
2017-11-08T14:15:58.524Z,41.77
2017-11-08T14:19:01.645Z,41.93
2017-11-08T14:22:03.553Z,41.33
2017-11-08T14:25:05.600Z,42.67
2017-11-08T14:28:09.203Z,42.90
2017-11-08T14:31:11.168Z,42.47
2017-11-08T14:34:13.152Z,41.60
2017-11-08T14:37:15.106Z,43.50
2017-11-08T14:40:17.010Z,42.07
2017-11-08T14:43:19.050Z,42.40
2017-11-08T14:46:21.010Z,41.63
2017-11-08T14:49:24.732Z,40.47
2017-11-08T14:52:26.655Z,41.50
2017-11-08T14:55:28.695Z,42.43
2017-11-08T14:58:30.605Z,41.57
2017-11-08T15:01:32.651Z,40.33
2017-11-08T15:04:34.646Z,41.87
2017-11-08T15:07:36.945Z,48.87
2017-11-08T15:10:39.423Z,53.90
2017-11-08T15:13:41.831Z,50.03
2017-11-08T15:16:43.787Z,46.77
2017-11-08T15:19:46.205Z,42.63
2017-11-08T15:22:48.226Z,42.33
2017-11-08T15:25:50.483Z,41.90
2017-11-08T15:28:52.574Z,40.97
2017-11-08T15:31:55.417Z,40.13
2017-11-08T15:34:57.327Z,40.27
2017-11-08T15:37:59.655Z,39.17
2017-11-08T15:41:02.450Z,40.93
2017-11-08T15:44:04.413Z,40.40
2017-11-08T15:47:06.342Z,40.83
2017-11-08T15:50:08.376Z,39.20
2017-11-08T15:53:11.206Z,40.83
2017-11-08T15:56:13.595Z,39.70
2017-11-08T15:59:15.557Z,40.03
2017-11-08T16:02:17.976Z,40.30
2017-11-08T16:05:20.659Z,38.90
2017-11-08T16:08:22.933Z,39.03
2017-11-08T16:11:24.830Z,39.23
2017-11-08T16:14:26.894Z,38.43
2017-11-08T16:17:28.922Z,38.43
2017-11-08T16:20:31.809Z,38.63
2017-11-08T16:23:34.487Z,38.27
2017-11-08T16:26:36.792Z,39.83
2017-11-08T16:29:38.768Z,39.53
2017-11-08T16:32:41.290Z,37.33
2017-11-08T16:35:44.060Z,40.47
2017-11-08T16:38:46.075Z,40.17
2017-11-08T16:41:48.876Z,40.57
2017-11-08T16:44:52.089Z,39.07
2017-11-08T16:47:54.879Z,39.30
2017-11-08T16:50:57.148Z,40.57
2017-11-08T16:53:59.136Z,40.03
2017-11-08T16:57:01.447Z,40.23
2017-11-08T17:00:03.382Z,39.70
2017-11-08T17:03:05.396Z,39.87
2017-11-08T17:06:07.326Z,38.37
2017-11-08T17:09:09.331Z,39.23
2017-11-08T17:12:11.366Z,39.33
2017-11-08T17:15:13.634Z,38.70
2017-11-08T17:18:15.639Z,39.77
2017-11-08T17:21:17.613Z,39.13
2017-11-08T17:24:19.601Z,40.77
2017-11-08T17:27:21.782Z,39.80
2017-11-08T17:30:23.936Z,40.17
2017-11-08T17:33:26.285Z,40.23
2017-11-08T17:36:28.975Z,40.57
2017-11-08T17:39:31.687Z,42.17
2017-11-08T17:42:34.477Z,40.67
2017-11-08T17:45:36.431Z,41.27
2017-11-08T17:48:38.443Z,41.17
2017-11-08T17:51:41.228Z,39.50
2017-11-08T17:54:43.119Z,39.43
2017-11-08T17:57:45.088Z,40.17
2017-11-08T18:00:46.995Z,39.87
2017-11-08T18:03:49.902Z,39.10
2017-11-08T18:06:52.604Z,38.90
2017-11-08T18:09:55.392Z,40.23
2017-11-08T18:12:57.359Z,39.10
2017-11-08T18:16:00.466Z,38.93
2017-11-08T18:19:02.486Z,38.20
2017-11-08T18:22:05.584Z,39.97
2017-11-08T18:25:08.286Z,39.63
2017-11-08T18:28:11.100Z,40.53
2017-11-08T18:31:13.761Z,39.53
2017-11-08T18:34:15.768Z,40.40
2017-11-08T18:37:18.541Z,38.80
2017-11-08T18:40:21.676Z,39.77
2017-11-08T18:43:24.419Z,39.13
2017-11-08T18:46:26.703Z,38.50
2017-11-08T18:49:28.632Z,39.13
2017-11-08T18:52:30.949Z,39.77
2017-11-08T18:55:33.724Z,37.87
2017-11-08T18:58:36.839Z,37.27
2017-11-08T19:01:38.778Z,38.07
2017-11-08T19:04:41.199Z,39.43
2017-11-08T19:07:43.138Z,35.13
2017-11-08T19:10:45.096Z,39.63
2017-11-08T19:13:47.794Z,36.70
2017-11-08T19:16:50.912Z,38.10
2017-11-08T19:19:53.800Z,37.43
2017-11-08T19:22:55.763Z,37.63
2017-11-08T19:25:57.739Z,36.10
2017-11-08T19:29:00.395Z,38.47
2017-11-08T19:32:02.382Z,35.07
2017-11-08T19:35:04.715Z,36.77
2017-11-08T19:38:06.639Z,34.50
2017-11-08T19:41:09.772Z,37.63
2017-11-08T19:44:11.684Z,36.80
2017-11-08T19:47:13.791Z,36.30
2017-11-08T19:50:15.727Z,36.83
2017-11-08T19:53:17.996Z,35.50
2017-11-08T19:56:20.763Z,36.77
2017-11-08T19:59:22.757Z,37.17
2017-11-08T20:02:24.741Z,38.43
2017-11-08T20:05:27.547Z,39.87
2017-11-08T20:08:30.323Z,35.03
2017-11-08T20:11:32.262Z,36.10
2017-11-08T20:14:34.230Z,35.27
2017-11-08T20:17:37.132Z,34.63
2017-11-08T20:20:40.237Z,35.00
2017-11-08T20:23:43.867Z,34.83
2017-11-08T20:26:46.120Z,35.63
2017-11-08T20:29:49.161Z,34.83
2017-11-08T20:32:52.683Z,35.13
2017-11-08T20:35:56.002Z,34.27
2017-11-08T20:38:58.283Z,36.27
2017-11-08T20:42:01.287Z,36.40
2017-11-08T20:45:04.029Z,40.70
2017-11-08T20:48:06.430Z,38.33
2017-11-08T20:51:08.333Z,34.83
2017-11-08T20:54:10.549Z,35.23
2017-11-08T20:57:13.318Z,34.20
2017-11-08T21:00:15.425Z,34.73
2017-11-08T21:03:18.244Z,35.67
2017-11-08T21:06:21.319Z,35.60
2017-11-08T21:09:23.316Z,35.87
2017-11-08T21:12:25.297Z,35.13
2017-11-08T21:15:27.282Z,34.57
2017-11-08T21:18:29.238Z,33.57
2017-11-08T21:21:31.140Z,33.20
2017-11-08T21:24:34.122Z,34.53
2017-11-08T21:27:36.353Z,34.30
2017-11-08T21:30:39.309Z,34.07
2017-11-08T21:33:41.231Z,33.67
2017-11-08T21:36:43.158Z,34.37
2017-11-08T21:39:45.057Z,33.43
2017-11-08T21:42:47.109Z,34.13
2017-11-08T21:45:49.031Z,32.80
2017-11-08T21:48:51.026Z,33.07
2017-11-08T21:51:53.013Z,33.17
2017-11-08T21:54:55.803Z,33.43
2017-11-08T21:57:57.803Z,33.90
2017-11-08T22:00:59.776Z,33.00
2017-11-08T22:04:01.752Z,34.67
2017-11-08T22:07:03.741Z,33.37
2017-11-08T22:10:05.635Z,34.03
2017-11-08T22:13:07.612Z,34.17
2017-11-08T22:16:09.503Z,34.50
2017-11-08T22:19:11.457Z,35.73
2017-11-08T22:22:13.471Z,34.33
2017-11-08T22:25:15.410Z,33.67
2017-11-08T22:28:17.337Z,34.80
2017-11-08T22:31:20.027Z,33.40
2017-11-08T22:34:21.927Z,34.80
2017-11-08T22:37:25.118Z,32.77
2017-11-08T22:40:27.047Z,33.87
2017-11-08T22:43:29.076Z,34.27
2017-11-08T22:46:30.977Z,34.57
2017-11-08T22:49:32.989Z,33.97
2017-11-08T22:52:34.920Z,32.43
2017-11-08T22:55:36.869Z,32.80
2017-11-08T22:58:38.815Z,34.87
2017-11-08T23:01:41.531Z,34.43
2017-11-08T23:04:45.005Z,34.83
2017-11-08T23:07:46.948Z,34.30
2017-11-08T23:10:48.972Z,34.30
2017-11-08T23:13:50.916Z,33.37
2017-11-08T23:16:53.546Z,34.23
2017-11-08T23:19:55.838Z,34.53
2017-11-08T23:22:57.846Z,33.93
2017-11-08T23:26:00.338Z,33.07
2017-11-08T23:29:02.242Z,33.93
2017-11-08T23:32:05.315Z,33.83
2017-11-08T23:35:07.315Z,34.27
2017-11-08T23:38:10.840Z,34.20
2017-11-08T23:41:13.498Z,34.77
2017-11-08T23:44:15.752Z,33.93
2017-11-08T23:47:17.805Z,34.10
2017-11-08T23:50:20.067Z,33.97
2017-11-08T23:53:21.982Z,35.60
2017-11-08T23:56:23.903Z,34.47
2017-11-08T23:59:25.809Z,35.60
